sensor_id;sensor_type;location;lat;lon;timestamp;temperature;humidity
30381;DHT22;17169;50.966;11.038;2022-11-15T00:02:38;10.40;99.90
30381;DHT22;17169;50.966;11.038;2022-11-15T00:05:40;10.40;99.90
30381;DHT22;17169;50.966;11.038;2022-11-15T00:08:43;10.40;99.90
30381;DHT22;17169;50.966;11.038;2022-11-15T00:11:45;10.40;99.90
30381;DHT22;17169;50.966;11.038;2022-11-15T00:14:47;10.40;99.90
30381;DHT22;17169;50.966;11.038;2022-11-15T00:17:51;10.30;99.90
30381;DHT22;17169;50.966;11.038;2022-11-15T00:20:54;10.40;99.90
30381;DHT22;17169;50.966;11.038;2022-11-15T00:23:56;10.40;99.90
30381;DHT22;17169;50.966;11.038;2022-11-15T00:26:58;10.40;99.90
30381;DHT22;17169;50.966;11.038;2022-11-15T00:30:01;10.40;99.90
30381;DHT22;17169;50.966;11.038;2022-11-15T00:33:06;10.40;99.90
30381;DHT22;17169;50.966;11.038;2022-11-15T00:36:09;10.40;99.90
30381;DHT22;17169;50.966;11.038;2022-11-15T00:39:11;10.40;99.90
30381;DHT22;17169;50.966;11.038;2022-11-15T00:42:14;10.40;99.90
30381;DHT22;17169;50.966;11.038;2022-11-15T00:45:16;10.40;99.90
30381;DHT22;17169;50.966;11.038;2022-11-15T00:48:20;10.50;99.90
30381;DHT22;17169;50.966;11.038;2022-11-15T00:51:22;10.50;99.90
30381;DHT22;17169;50.966;11.038;2022-11-15T00:54:25;10.50;99.90
30381;DHT22;17169;50.966;11.038;2022-11-15T00:57:27;10.50;99.90
30381;DHT22;17169;50.966;11.038;2022-11-15T01:00:29;10.50;99.90
30381;DHT22;17169;50.966;11.038;2022-11-15T01:03:33;10.50;99.90
30381;DHT22;17169;50.966;11.038;2022-11-15T01:06:36;10.50;99.90
30381;DHT22;17169;50.966;11.038;2022-11-15T01:09:38;10.50;99.90
30381;DHT22;17169;50.966;11.038;2022-11-15T01:12:41;10.50;99.90
30381;DHT22;17169;50.966;11.038;2022-11-15T01:15:43;10.50;99.90
30381;DHT22;17169;50.966;11.038;2022-11-15T01:18:47;10.50;99.90
30381;DHT22;17169;50.966;11.038;2022-11-15T01:21:49;10.50;99.90
30381;DHT22;17169;50.966;11.038;2022-11-15T01:24:52;10.50;99.90
30381;DHT22;17169;50.966;11.038;2022-11-15T01:27:54;10.40;99.90
30381;DHT22;17169;50.966;11.038;2022-11-15T01:30:58;10.40;99.90
30381;DHT22;17169;50.966;11.038;2022-11-15T01:34:01;10.40;99.90
30381;DHT22;17169;50.966;11.038;2022-11-15T01:37:04;10.50;99.90
30381;DHT22;17169;50.966;11.038;2022-11-15T01:40:07;10.50;99.90
30381;DHT22;17169;50.966;11.038;2022-11-15T01:43:20;10.50;99.90
30381;DHT22;17169;50.966;11.038;2022-11-15T01:46:27;10.60;99.90
30381;DHT22;17169;50.966;11.038;2022-11-15T01:49:33;10.60;99.90
30381;DHT22;17169;50.966;11.038;2022-11-15T01:52:38;10.60;99.90
30381;DHT22;17169;50.966;11.038;2022-11-15T01:55:41;10.70;99.90
30381;DHT22;17169;50.966;11.038;2022-11-15T01:58:44;10.70;99.90
30381;DHT22;17169;50.966;11.038;2022-11-15T02:01:47;10.80;99.90
30381;DHT22;17169;50.966;11.038;2022-11-15T02:04:51;10.80;99.90
30381;DHT22;17169;50.966;11.038;2022-11-15T02:07:53;10.80;99.90
30381;DHT22;17169;50.966;11.038;2022-11-15T02:10:56;10.80;99.90
30381;DHT22;17169;50.966;11.038;2022-11-15T02:13:59;10.90;99.90
30381;DHT22;17169;50.966;11.038;2022-11-15T02:17:12;10.90;99.90
30381;DHT22;17169;50.966;11.038;2022-11-15T02:20:48;10.90;99.90
30381;DHT22;17169;50.966;11.038;2022-11-15T02:24:11;10.90;99.90
30381;DHT22;17169;50.966;11.038;2022-11-15T02:27:53;10.90;99.90
30381;DHT22;17169;50.966;11.038;2022-11-15T02:31:04;10.90;99.90
30381;DHT22;17169;50.966;11.038;2022-11-15T02:34:17;10.90;99.90
30381;DHT22;17169;50.966;11.038;2022-11-15T02:37:35;10.90;99.90
30381;DHT22;17169;50.966;11.038;2022-11-15T02:40:47;10.80;99.90
30381;DHT22;17169;50.966;11.038;2022-11-15T02:43:58;10.80;99.90
30381;DHT22;17169;50.966;11.038;2022-11-15T02:47:05;10.70;99.90
30381;DHT22;17169;50.966;11.038;2022-11-15T02:50:18;10.70;99.90
30381;DHT22;17169;50.966;11.038;2022-11-15T02:53:24;10.70;99.90
30381;DHT22;17169;50.966;11.038;2022-11-15T02:56:27;10.60;99.90
30381;DHT22;17169;50.966;11.038;2022-11-15T03:03:16;10.50;99.90
30381;DHT22;17169;50.966;11.038;2022-11-15T03:06:30;10.50;99.90
30381;DHT22;17169;50.966;11.038;2022-11-15T03:09:42;10.40;99.90
30381;DHT22;17169;50.966;11.038;2022-11-15T03:12:52;10.40;99.90
30381;DHT22;17169;50.966;11.038;2022-11-15T03:16:02;10.40;99.90
30381;DHT22;17169;50.966;11.038;2022-11-15T03:19:12;10.30;99.90
30381;DHT22;17169;50.966;11.038;2022-11-15T03:22:17;10.30;99.90
30381;DHT22;17169;50.966;11.038;2022-11-15T03:25:23;10.30;99.90
30381;DHT22;17169;50.966;11.038;2022-11-15T03:28:30;10.30;99.90
30381;DHT22;17169;50.966;11.038;2022-11-15T03:31:37;10.30;99.90
30381;DHT22;17169;50.966;11.038;2022-11-15T03:34:53;10.30;99.90
30381;DHT22;17169;50.966;11.038;2022-11-15T03:38:03;10.30;99.90
30381;DHT22;17169;50.966;11.038;2022-11-15T03:41:11;10.30;99.90
30381;DHT22;17169;50.966;11.038;2022-11-15T03:44:23;10.30;99.90
30381;DHT22;17169;50.966;11.038;2022-11-15T03:47:32;10.40;99.90
30381;DHT22;17169;50.966;11.038;2022-11-15T03:50:36;10.40;99.90
30381;DHT22;17169;50.966;11.038;2022-11-15T03:53:40;10.40;99.90
30381;DHT22;17169;50.966;11.038;2022-11-15T03:56:43;10.40;99.90
30381;DHT22;17169;50.966;11.038;2022-11-15T03:59:45;10.40;99.90
30381;DHT22;17169;50.966;11.038;2022-11-15T04:02:47;10.40;99.90
30381;DHT22;17169;50.966;11.038;2022-11-15T04:05:51;10.40;99.90
30381;DHT22;17169;50.966;11.038;2022-11-15T04:08:53;10.40;99.90
30381;DHT22;17169;50.966;11.038;2022-11-15T04:11:56;10.40;99.90
30381;DHT22;17169;50.966;11.038;2022-11-15T04:15:00;10.40;99.90
30381;DHT22;17169;50.966;11.038;2022-11-15T04:18:11;10.30;99.90
30381;DHT22;17169;50.966;11.038;2022-11-15T04:21:15;10.30;99.90
30381;DHT22;17169;50.966;11.038;2022-11-15T04:24:35;10.30;99.90
30381;DHT22;17169;50.966;11.038;2022-11-15T04:27:37;10.20;99.90
30381;DHT22;17169;50.966;11.038;2022-11-15T04:30:39;10.20;99.90
30381;DHT22;17169;50.966;11.038;2022-11-15T04:33:42;10.20;99.90
30381;DHT22;17169;50.966;11.038;2022-11-15T04:36:45;10.20;99.90
30381;DHT22;17169;50.966;11.038;2022-11-15T04:40:06;10.20;99.90
30381;DHT22;17169;50.966;11.038;2022-11-15T04:43:09;10.10;99.90
30381;DHT22;17169;50.966;11.038;2022-11-15T04:46:11;10.10;99.90
30381;DHT22;17169;50.966;11.038;2022-11-15T04:49:13;10.10;99.90
30381;DHT22;17169;50.966;11.038;2022-11-15T04:52:17;10.00;99.90
30381;DHT22;17169;50.966;11.038;2022-11-15T04:55:20;10.10;99.90
30381;DHT22;17169;50.966;11.038;2022-11-15T04:58:22;10.00;99.90
30381;DHT22;17169;50.966;11.038;2022-11-15T05:01:24;10.00;99.90
30381;DHT22;17169;50.966;11.038;2022-11-15T05:04:27;10.00;99.90
30381;DHT22;17169;50.966;11.038;2022-11-15T05:07:30;10.00;99.90
30381;DHT22;17169;50.966;11.038;2022-11-15T05:10:33;10.00;99.90
30381;DHT22;17169;50.966;11.038;2022-11-15T05:13:35;10.00;99.90
30381;DHT22;17169;50.966;11.038;2022-11-15T05:16:38;10.10;99.90
30381;DHT22;17169;50.966;11.038;2022-11-15T05:19:40;10.20;99.90
30381;DHT22;17169;50.966;11.038;2022-11-15T05:22:44;10.20;99.90
30381;DHT22;17169;50.966;11.038;2022-11-15T05:25:46;10.20;99.90
30381;DHT22;17169;50.966;11.038;2022-11-15T05:28:52;10.10;99.90
30381;DHT22;17169;50.966;11.038;2022-11-15T05:31:55;10.20;99.90
30381;DHT22;17169;50.966;11.038;2022-11-15T05:34:57;10.20;99.90
30381;DHT22;17169;50.966;11.038;2022-11-15T05:38:01;10.20;99.90
30381;DHT22;17169;50.966;11.038;2022-11-15T05:41:04;10.20;99.90
30381;DHT22;17169;50.966;11.038;2022-11-15T05:44:09;10.20;99.90
30381;DHT22;17169;50.966;11.038;2022-11-15T05:47:15;10.20;99.90
30381;DHT22;17169;50.966;11.038;2022-11-15T05:50:18;10.20;99.90
30381;DHT22;17169;50.966;11.038;2022-11-15T05:53:23;10.20;99.90
30381;DHT22;17169;50.966;11.038;2022-11-15T05:56:26;10.20;99.90
30381;DHT22;17169;50.966;11.038;2022-11-15T05:59:29;10.20;99.90
30381;DHT22;17169;50.966;11.038;2022-11-15T06:02:32;10.20;99.90
30381;DHT22;17169;50.966;11.038;2022-11-15T06:05:34;10.20;99.90
30381;DHT22;17169;50.966;11.038;2022-11-15T06:08:38;10.20;99.90
30381;DHT22;17169;50.966;11.038;2022-11-15T06:11:40;10.20;99.90
30381;DHT22;17169;50.966;11.038;2022-11-15T06:14:43;10.10;99.90
30381;DHT22;17169;50.966;11.038;2022-11-15T06:17:45;10.10;99.90
30381;DHT22;17169;50.966;11.038;2022-11-15T06:20:47;10.10;99.90
30381;DHT22;17169;50.966;11.038;2022-11-15T06:23:51;10.10;99.90
30381;DHT22;17169;50.966;11.038;2022-11-15T06:26:53;10.10;99.90
30381;DHT22;17169;50.966;11.038;2022-11-15T06:29:56;10.00;99.90
30381;DHT22;17169;50.966;11.038;2022-11-15T06:32:59;10.00;99.90
30381;DHT22;17169;50.966;11.038;2022-11-15T06:36:03;10.00;99.90
30381;DHT22;17169;50.966;11.038;2022-11-15T06:39:07;9.90;99.90
30381;DHT22;17169;50.966;11.038;2022-11-15T06:42:09;9.80;99.90
30381;DHT22;17169;50.966;11.038;2022-11-15T06:45:12;9.80;99.90
30381;DHT22;17169;50.966;11.038;2022-11-15T06:48:14;9.80;99.90
30381;DHT22;17169;50.966;11.038;2022-11-15T06:51:16;9.70;99.90
30381;DHT22;17169;50.966;11.038;2022-11-15T06:54:20;9.70;99.90
30381;DHT22;17169;50.966;11.038;2022-11-15T06:57:23;9.60;99.90
30381;DHT22;17169;50.966;11.038;2022-11-15T07:00:25;9.50;99.90
30381;DHT22;17169;50.966;11.038;2022-11-15T07:03:28;9.50;99.90
30381;DHT22;17169;50.966;11.038;2022-11-15T07:06:30;9.50;99.90
30381;DHT22;17169;50.966;11.038;2022-11-15T07:09:35;9.50;99.90
30381;DHT22;17169;50.966;11.038;2022-11-15T07:12:37;9.50;99.90
30381;DHT22;17169;50.966;11.038;2022-11-15T07:15:39;9.50;99.90
30381;DHT22;17169;50.966;11.038;2022-11-15T07:18:42;9.40;99.90
30381;DHT22;17169;50.966;11.038;2022-11-15T07:21:44;9.40;99.90
30381;DHT22;17169;50.966;11.038;2022-11-15T07:24:48;9.40;99.90
30381;DHT22;17169;50.966;11.038;2022-11-15T07:27:54;9.40;99.90
30381;DHT22;17169;50.966;11.038;2022-11-15T07:30:57;9.40;99.90
30381;DHT22;17169;50.966;11.038;2022-11-15T07:33:59;9.40;99.90
30381;DHT22;17169;50.966;11.038;2022-11-15T07:37:02;9.40;99.90
30381;DHT22;17169;50.966;11.038;2022-11-15T07:40:07;9.40;99.90
30381;DHT22;17169;50.966;11.038;2022-11-15T07:43:10;9.40;99.90
30381;DHT22;17169;50.966;11.038;2022-11-15T07:46:12;9.50;99.90
30381;DHT22;17169;50.966;11.038;2022-11-15T07:49:15;9.50;99.90
30381;DHT22;17169;50.966;11.038;2022-11-15T07:52:17;9.50;99.90
30381;DHT22;17169;50.966;11.038;2022-11-15T07:55:21;9.50;99.90
30381;DHT22;17169;50.966;11.038;2022-11-15T07:58:23;9.60;99.90
30381;DHT22;17169;50.966;11.038;2022-11-15T08:01:25;9.60;99.90
30381;DHT22;17169;50.966;11.038;2022-11-15T08:04:28;9.70;99.90
30381;DHT22;17169;50.966;11.038;2022-11-15T08:07:30;9.70;99.90
30381;DHT22;17169;50.966;11.038;2022-11-15T08:10:34;9.80;99.90
30381;DHT22;17169;50.966;11.038;2022-11-15T08:13:37;9.90;99.90
30381;DHT22;17169;50.966;11.038;2022-11-15T08:16:39;10.00;99.90
30381;DHT22;17169;50.966;11.038;2022-11-15T08:19:41;10.10;99.90
30381;DHT22;17169;50.966;11.038;2022-11-15T08:22:44;10.30;99.90
30381;DHT22;17169;50.966;11.038;2022-11-15T08:25:47;10.40;99.90
30381;DHT22;17169;50.966;11.038;2022-11-15T08:28:50;10.50;99.90
30381;DHT22;17169;50.966;11.038;2022-11-15T08:31:54;10.60;99.90
30381;DHT22;17169;50.966;11.038;2022-11-15T08:34:57;10.70;99.90
30381;DHT22;17169;50.966;11.038;2022-11-15T08:37:59;10.80;99.90
30381;DHT22;17169;50.966;11.038;2022-11-15T08:41:04;10.90;99.90
30381;DHT22;17169;50.966;11.038;2022-11-15T08:44:06;11.00;99.90
30381;DHT22;17169;50.966;11.038;2022-11-15T08:47:11;11.20;99.90
30381;DHT22;17169;50.966;11.038;2022-11-15T08:50:13;11.30;99.90
30381;DHT22;17169;50.966;11.038;2022-11-15T08:53:16;11.40;99.90
30381;DHT22;17169;50.966;11.038;2022-11-15T08:56:20;11.50;99.90
30381;DHT22;17169;50.966;11.038;2022-11-15T08:59:22;11.60;99.90
30381;DHT22;17169;50.966;11.038;2022-11-15T09:02:25;11.80;99.90
30381;DHT22;17169;50.966;11.038;2022-11-15T09:05:27;11.80;99.90
30381;DHT22;17169;50.966;11.038;2022-11-15T09:08:30;12.00;99.90
30381;DHT22;17169;50.966;11.038;2022-11-15T09:11:34;12.00;99.90
30381;DHT22;17169;50.966;11.038;2022-11-15T09:14:36;12.10;99.90
30381;DHT22;17169;50.966;11.038;2022-11-15T09:17:39;12.20;99.90
30381;DHT22;17169;50.966;11.038;2022-11-15T09:20:41;12.40;99.90
30381;DHT22;17169;50.966;11.038;2022-11-15T09:23:44;12.50;99.90
30381;DHT22;17169;50.966;11.038;2022-11-15T09:26:49;12.50;99.90
30381;DHT22;17169;50.966;11.038;2022-11-15T09:29:52;12.60;99.90
30381;DHT22;17169;50.966;11.038;2022-11-15T09:32:54;12.60;99.90
30381;DHT22;17169;50.966;11.038;2022-11-15T09:36:00;12.70;99.90
30381;DHT22;17169;50.966;11.038;2022-11-15T09:39:03;12.60;99.90
30381;DHT22;17169;50.966;11.038;2022-11-15T09:42:20;12.70;99.90
30381;DHT22;17169;50.966;11.038;2022-11-15T09:45:31;12.70;99.90
30381;DHT22;17169;50.966;11.038;2022-11-15T09:48:53;12.70;99.90
30381;DHT22;17169;50.966;11.038;2022-11-15T09:51:58;12.70;99.90
30381;DHT22;17169;50.966;11.038;2022-11-15T09:55:01;12.70;99.90
30381;DHT22;17169;50.966;11.038;2022-11-15T09:58:15;12.80;99.90
30381;DHT22;17169;50.966;11.038;2022-11-15T10:01:39;12.80;99.90
30381;DHT22;17169;50.966;11.038;2022-11-15T10:04:43;12.80;99.90
30381;DHT22;17169;50.966;11.038;2022-11-15T10:07:50;12.80;99.90
30381;DHT22;17169;50.966;11.038;2022-11-15T10:10:59;12.90;99.90
30381;DHT22;17169;50.966;11.038;2022-11-15T10:14:08;12.90;99.90
30381;DHT22;17169;50.966;11.038;2022-11-15T10:17:43;13.00;99.90
30381;DHT22;17169;50.966;11.038;2022-11-15T10:20:55;13.10;99.90
30381;DHT22;17169;50.966;11.038;2022-11-15T10:23:59;13.20;99.90
30381;DHT22;17169;50.966;11.038;2022-11-15T10:27:04;13.20;99.90
30381;DHT22;17169;50.966;11.038;2022-11-15T10:30:13;13.30;99.90
30381;DHT22;17169;50.966;11.038;2022-11-15T10:33:30;13.30;99.90
30381;DHT22;17169;50.966;11.038;2022-11-15T10:36:34;13.40;99.90
30381;DHT22;17169;50.966;11.038;2022-11-15T10:39:37;13.50;99.90
30381;DHT22;17169;50.966;11.038;2022-11-15T10:42:39;13.50;99.90
30381;DHT22;17169;50.966;11.038;2022-11-15T10:45:44;13.60;99.90
30381;DHT22;17169;50.966;11.038;2022-11-15T10:48:47;13.60;99.90
30381;DHT22;17169;50.966;11.038;2022-11-15T10:51:53;13.70;99.90
30381;DHT22;17169;50.966;11.038;2022-11-15T10:54:59;13.80;99.90
30381;DHT22;17169;50.966;11.038;2022-11-15T10:58:05;13.80;99.90
30381;DHT22;17169;50.966;11.038;2022-11-15T11:01:12;13.90;99.90
30381;DHT22;17169;50.966;11.038;2022-11-15T11:04:15;14.00;99.90
30381;DHT22;17169;50.966;11.038;2022-11-15T11:07:21;14.00;99.90
30381;DHT22;17169;50.966;11.038;2022-11-15T11:10:23;14.10;99.90
30381;DHT22;17169;50.966;11.038;2022-11-15T11:13:28;14.20;99.90
30381;DHT22;17169;50.966;11.038;2022-11-15T11:16:54;14.30;99.90
30381;DHT22;17169;50.966;11.038;2022-11-15T11:20:02;14.40;99.90
30381;DHT22;17169;50.966;11.038;2022-11-15T11:23:24;14.50;99.90
30381;DHT22;17169;50.966;11.038;2022-11-15T11:26:38;14.50;99.90
30381;DHT22;17169;50.966;11.038;2022-11-15T11:29:53;14.60;99.90
30381;DHT22;17169;50.966;11.038;2022-11-15T11:33:09;14.70;99.90
30381;DHT22;17169;50.966;11.038;2022-11-15T11:36:21;14.70;99.90
30381;DHT22;17169;50.966;11.038;2022-11-15T11:39:27;14.70;99.90
30381;DHT22;17169;50.966;11.038;2022-11-15T11:42:39;14.70;99.90
30381;DHT22;17169;50.966;11.038;2022-11-15T11:46:01;14.80;99.90
30381;DHT22;17169;50.966;11.038;2022-11-15T11:49:10;14.80;99.90
30381;DHT22;17169;50.966;11.038;2022-11-15T11:52:17;14.80;99.90
30381;DHT22;17169;50.966;11.038;2022-11-15T11:55:26;14.90;99.90
30381;DHT22;17169;50.966;11.038;2022-11-15T11:58:34;14.90;99.90
30381;DHT22;17169;50.966;11.038;2022-11-15T12:01:42;14.90;99.90
30381;DHT22;17169;50.966;11.038;2022-11-15T12:04:51;14.90;99.90
30381;DHT22;17169;50.966;11.038;2022-11-15T12:07:56;14.90;99.90
30381;DHT22;17169;50.966;11.038;2022-11-15T12:11:08;15.00;99.90
30381;DHT22;17169;50.966;11.038;2022-11-15T12:14:20;15.00;99.90
30381;DHT22;17169;50.966;11.038;2022-11-15T12:17:25;15.00;99.90
30381;DHT22;17169;50.966;11.038;2022-11-15T12:20:32;15.10;99.90
30381;DHT22;17169;50.966;11.038;2022-11-15T12:23:42;15.10;99.90
30381;DHT22;17169;50.966;11.038;2022-11-15T12:26:49;15.20;99.90
30381;DHT22;17169;50.966;11.038;2022-11-15T12:29:56;15.20;99.90
30381;DHT22;17169;50.966;11.038;2022-11-15T12:33:00;15.30;99.90
30381;DHT22;17169;50.966;11.038;2022-11-15T12:36:08;15.40;99.90
30381;DHT22;17169;50.966;11.038;2022-11-15T12:39:13;15.50;99.90
30381;DHT22;17169;50.966;11.038;2022-11-15T12:42:35;15.60;99.90
30381;DHT22;17169;50.966;11.038;2022-11-15T12:45:39;15.80;99.90
30381;DHT22;17169;50.966;11.038;2022-11-15T12:48:54;15.90;99.90
30381;DHT22;17169;50.966;11.038;2022-11-15T12:52:08;15.90;99.90
30381;DHT22;17169;50.966;11.038;2022-11-15T12:55:32;15.90;99.90
30381;DHT22;17169;50.966;11.038;2022-11-15T12:58:41;16.00;99.90
30381;DHT22;17169;50.966;11.038;2022-11-15T13:01:59;16.10;99.90
30381;DHT22;17169;50.966;11.038;2022-11-15T13:05:52;16.10;99.90
30381;DHT22;17169;50.966;11.038;2022-11-15T13:08:56;16.20;99.90
30381;DHT22;17169;50.966;11.038;2022-11-15T13:11:59;16.30;99.90
30381;DHT22;17169;50.966;11.038;2022-11-15T13:15:31;16.30;99.90
30381;DHT22;17169;50.966;11.038;2022-11-15T13:18:37;16.40;99.90
30381;DHT22;17169;50.966;11.038;2022-11-15T13:21:49;16.40;99.90
30381;DHT22;17169;50.966;11.038;2022-11-15T13:25:19;16.30;99.80
30381;DHT22;17169;50.966;11.038;2022-11-15T13:28:30;16.30;99.80
30381;DHT22;17169;50.966;11.038;2022-11-15T13:31:36;16.30;99.80
30381;DHT22;17169;50.966;11.038;2022-11-15T13:34:43;16.20;99.90
30381;DHT22;17169;50.966;11.038;2022-11-15T13:37:48;16.10;99.90
30381;DHT22;17169;50.966;11.038;2022-11-15T13:40:51;16.10;99.90
30381;DHT22;17169;50.966;11.038;2022-11-15T13:43:55;16.00;99.90
30381;DHT22;17169;50.966;11.038;2022-11-15T13:47:02;16.10;99.90
30381;DHT22;17169;50.966;11.038;2022-11-15T13:50:05;16.00;99.90
30381;DHT22;17169;50.966;11.038;2022-11-15T13:53:09;15.90;99.90
30381;DHT22;17169;50.966;11.038;2022-11-15T13:56:13;15.90;99.90
30381;DHT22;17169;50.966;11.038;2022-11-15T13:59:24;15.80;99.90
30381;DHT22;17169;50.966;11.038;2022-11-15T14:02:29;15.80;99.90
30381;DHT22;17169;50.966;11.038;2022-11-15T14:05:32;15.70;99.90
30381;DHT22;17169;50.966;11.038;2022-11-15T14:08:35;15.60;99.90
30381;DHT22;17169;50.966;11.038;2022-11-15T14:11:49;15.60;99.90
30381;DHT22;17169;50.966;11.038;2022-11-15T14:14:52;15.50;99.90
30381;DHT22;17169;50.966;11.038;2022-11-15T14:17:55;15.50;99.90
30381;DHT22;17169;50.966;11.038;2022-11-15T14:21:05;15.50;99.90
30381;DHT22;17169;50.966;11.038;2022-11-15T14:24:14;15.40;99.90
30381;DHT22;17169;50.966;11.038;2022-11-15T14:27:21;15.40;99.90
30381;DHT22;17169;50.966;11.038;2022-11-15T14:30:24;15.40;99.90
30381;DHT22;17169;50.966;11.038;2022-11-15T14:33:29;15.40;99.90
30381;DHT22;17169;50.966;11.038;2022-11-15T14:36:32;15.40;99.70
30381;DHT22;17169;50.966;11.038;2022-11-15T14:39:34;15.30;99.80
30381;DHT22;17169;50.966;11.038;2022-11-15T14:42:38;15.30;99.80
30381;DHT22;17169;50.966;11.038;2022-11-15T14:45:41;15.30;99.50
30381;DHT22;17169;50.966;11.038;2022-11-15T14:48:43;15.30;99.00
30381;DHT22;17169;50.966;11.038;2022-11-15T14:51:46;15.20;99.00
30381;DHT22;17169;50.966;11.038;2022-11-15T14:54:48;15.10;99.00
30381;DHT22;17169;50.966;11.038;2022-11-15T14:57:52;15.10;99.00
30381;DHT22;17169;50.966;11.038;2022-11-15T15:00:54;15.10;99.00
30381;DHT22;17169;50.966;11.038;2022-11-15T15:03:56;15.10;99.10
30381;DHT22;17169;50.966;11.038;2022-11-15T15:06:59;15.00;99.10
30381;DHT22;17169;50.966;11.038;2022-11-15T15:10:02;15.00;99.20
30381;DHT22;17169;50.966;11.038;2022-11-15T15:13:06;14.90;99.40
30381;DHT22;17169;50.966;11.038;2022-11-15T15:16:10;14.80;99.60
30381;DHT22;17169;50.966;11.038;2022-11-15T15:19:13;14.80;99.80
30381;DHT22;17169;50.966;11.038;2022-11-15T15:22:17;14.80;99.90
30381;DHT22;17169;50.966;11.038;2022-11-15T15:25:27;14.80;99.90
30381;DHT22;17169;50.966;11.038;2022-11-15T15:28:30;14.70;99.90
30381;DHT22;17169;50.966;11.038;2022-11-15T15:31:33;14.70;99.90
30381;DHT22;17169;50.966;11.038;2022-11-15T15:34:35;14.70;99.90
30381;DHT22;17169;50.966;11.038;2022-11-15T15:37:38;14.60;99.90
30381;DHT22;17169;50.966;11.038;2022-11-15T15:40:40;14.60;99.90
30381;DHT22;17169;50.966;11.038;2022-11-15T15:43:44;14.60;99.90
30381;DHT22;17169;50.966;11.038;2022-11-15T15:46:46;14.60;99.90
30381;DHT22;17169;50.966;11.038;2022-11-15T15:49:50;14.50;99.90
30381;DHT22;17169;50.966;11.038;2022-11-15T15:52:54;14.50;99.90
30381;DHT22;17169;50.966;11.038;2022-11-15T15:55:56;14.50;99.90
30381;DHT22;17169;50.966;11.038;2022-11-15T15:59:00;14.50;99.90
30381;DHT22;17169;50.966;11.038;2022-11-15T16:02:03;14.40;99.90
30381;DHT22;17169;50.966;11.038;2022-11-15T16:05:06;14.40;99.90
30381;DHT22;17169;50.966;11.038;2022-11-15T16:08:16;14.40;99.90
30381;DHT22;17169;50.966;11.038;2022-11-15T16:11:20;14.40;99.90
30381;DHT22;17169;50.966;11.038;2022-11-15T16:14:23;14.30;99.90
30381;DHT22;17169;50.966;11.038;2022-11-15T16:17:27;14.30;99.90
30381;DHT22;17169;50.966;11.038;2022-11-15T16:20:33;14.30;99.90
30381;DHT22;17169;50.966;11.038;2022-11-15T16:23:36;14.20;99.90
30381;DHT22;17169;50.966;11.038;2022-11-15T16:26:39;14.20;99.90
30381;DHT22;17169;50.966;11.038;2022-11-15T16:29:43;14.10;99.90
30381;DHT22;17169;50.966;11.038;2022-11-15T16:32:45;14.10;99.90
30381;DHT22;17169;50.966;11.038;2022-11-15T16:35:48;14.10;99.90
30381;DHT22;17169;50.966;11.038;2022-11-15T16:38:50;14.10;99.90
30381;DHT22;17169;50.966;11.038;2022-11-15T16:41:53;14.10;99.90
30381;DHT22;17169;50.966;11.038;2022-11-15T16:44:56;14.10;99.90
30381;DHT22;17169;50.966;11.038;2022-11-15T16:47:59;14.10;99.90
30381;DHT22;17169;50.966;11.038;2022-11-15T16:51:01;14.00;99.90
30381;DHT22;17169;50.966;11.038;2022-11-15T16:54:05;14.00;99.90
30381;DHT22;17169;50.966;11.038;2022-11-15T16:57:08;14.00;99.90
30381;DHT22;17169;50.966;11.038;2022-11-15T17:00:13;14.00;99.90
30381;DHT22;17169;50.966;11.038;2022-11-15T17:03:17;13.90;99.90
30381;DHT22;17169;50.966;11.038;2022-11-15T17:06:20;13.90;99.90
30381;DHT22;17169;50.966;11.038;2022-11-15T17:09:22;13.90;99.90
30381;DHT22;17169;50.966;11.038;2022-11-15T17:12:25;13.90;99.90
30381;DHT22;17169;50.966;11.038;2022-11-15T17:15:28;13.90;99.90
30381;DHT22;17169;50.966;11.038;2022-11-15T17:18:31;13.90;99.90
30381;DHT22;17169;50.966;11.038;2022-11-15T17:21:33;13.90;99.90
30381;DHT22;17169;50.966;11.038;2022-11-15T17:24:35;13.80;99.90
30381;DHT22;17169;50.966;11.038;2022-11-15T17:27:38;13.80;99.90
30381;DHT22;17169;50.966;11.038;2022-11-15T17:30:42;13.80;99.90
30381;DHT22;17169;50.966;11.038;2022-11-15T17:33:44;13.80;99.90
30381;DHT22;17169;50.966;11.038;2022-11-15T17:36:47;13.80;99.90
30381;DHT22;17169;50.966;11.038;2022-11-15T17:39:50;13.70;99.90
30381;DHT22;17169;50.966;11.038;2022-11-15T17:42:52;13.80;99.90
30381;DHT22;17169;50.966;11.038;2022-11-15T17:45:56;13.70;99.90
30381;DHT22;17169;50.966;11.038;2022-11-15T17:48:59;13.70;99.90
30381;DHT22;17169;50.966;11.038;2022-11-15T17:52:01;13.70;99.90
30381;DHT22;17169;50.966;11.038;2022-11-15T17:55:04;13.60;99.90
30381;DHT22;17169;50.966;11.038;2022-11-15T17:58:07;13.60;99.90
30381;DHT22;17169;50.966;11.038;2022-11-15T18:01:16;13.50;99.90
30381;DHT22;17169;50.966;11.038;2022-11-15T18:04:19;13.50;99.90
30381;DHT22;17169;50.966;11.038;2022-11-15T18:07:23;13.50;99.90
30381;DHT22;17169;50.966;11.038;2022-11-15T18:10:25;13.40;99.90
30381;DHT22;17169;50.966;11.038;2022-11-15T18:13:28;13.40;99.90
30381;DHT22;17169;50.966;11.038;2022-11-15T18:16:33;13.40;99.90
30381;DHT22;17169;50.966;11.038;2022-11-15T18:19:36;13.30;99.90
30381;DHT22;17169;50.966;11.038;2022-11-15T18:22:38;13.30;99.90
30381;DHT22;17169;50.966;11.038;2022-11-15T18:25:41;13.30;99.90
30381;DHT22;17169;50.966;11.038;2022-11-15T18:28:45;13.30;99.90
30381;DHT22;17169;50.966;11.038;2022-11-15T18:31:49;13.20;99.90
30381;DHT22;17169;50.966;11.038;2022-11-15T18:34:55;13.20;99.90
30381;DHT22;17169;50.966;11.038;2022-11-15T18:37:57;13.20;99.90
30381;DHT22;17169;50.966;11.038;2022-11-15T18:41:06;13.10;99.90
30381;DHT22;17169;50.966;11.038;2022-11-15T18:44:08;13.10;99.90
30381;DHT22;17169;50.966;11.038;2022-11-15T18:47:12;13.10;99.90
30381;DHT22;17169;50.966;11.038;2022-11-15T18:50:15;13.10;99.90
30381;DHT22;17169;50.966;11.038;2022-11-15T18:53:17;13.10;99.90
30381;DHT22;17169;50.966;11.038;2022-11-15T18:56:20;13.00;99.90
30381;DHT22;17169;50.966;11.038;2022-11-15T18:59:23;13.00;99.90
30381;DHT22;17169;50.966;11.038;2022-11-15T19:02:29;12.90;99.90
30381;DHT22;17169;50.966;11.038;2022-11-15T19:05:31;12.90;99.90
30381;DHT22;17169;50.966;11.038;2022-11-15T19:08:36;12.90;99.90
30381;DHT22;17169;50.966;11.038;2022-11-15T19:11:39;12.90;99.90
30381;DHT22;17169;50.966;11.038;2022-11-15T19:14:41;12.80;99.90
30381;DHT22;17169;50.966;11.038;2022-11-15T19:17:45;12.80;99.90
30381;DHT22;17169;50.966;11.038;2022-11-15T19:20:47;12.80;99.90